Aérodrome :
LOGIN :

S'inscrire | Disclaimer

   EN    FR    IT 

 










Légende :    VFR   VFR Marginal   IFR   IFR Intensif   IFR Très Intensif
Visi : 
Plafond : 
>= 8 km
>= 3000ft
5 à 8 km
1000 à 3000 ft
1500m à 5 km
500 à 1000 ft
800 à 1500m
200 à 500 ft
< 800m
< 200 ft
Symboles :   Orages  Brouillard  Fortes neiges  Fortes précipitations  Vent > 20 kt
SIGMETs :   Divers  Orages  Givrage  Turbulence  Onde Orograph.  Cendres Volcan.







- Altitude de l'aérodrome : 659 ft
- Code IATA : LGG


EBLG - Liège

DERNIER METAR :
  • 221950Z 21007KT CAVOK 21/11 Q1012 NOSIG

METARs EXPIRÉS :
  • 221920Z 23008KT CAVOK 20/11 Q1011 NOSIG
  • 221850Z 23009KT CAVOK 20/11 Q1011 NOSIG
  • 221820Z 24010KT CAVOK 22/11 Q1011 NOSIG
  • 221750Z 24013KT CAVOK 23/10 Q1011 NOSIG
  • 221720Z 25013KT CAVOK 23/10 Q1010 NOSIG

TAF TAF EBLG
Valide du 22 à 18h jusqu'au 24 à 00h UTC


221700Z 2218/2324 22011KT 9999 FEW045CB
PROB30
TEMPO 2218/2301 VRB15G25KT 4000 SHRA -TSRA
PROB40
TEMPO 2304/2308 SCT009 BKN012
Pas de NOTAMs connus pour ce terrain.



MET'MAP, la Météo Aéronautique d'un coup d'oeil ! - Copyright ORBIFLY Décembre 2007 - Disclaimer

ORBIFLY MET'MAP TEAM :

Programmation & Développement : Alexandra Zaïnal
Conception & Développement : Baudouin d'Aumeries
Co-Programmation & Développement : Marc-Olivier Méhu
Soutien technique & logistique : Manuel Goepfert

Contact : metmap@orbifly.com




SOURCES & CREDITS :

   NOAA